createdAt,value
2017-04-17T00:00:51.280Z,958.49
2017-04-17T00:03:03.541Z,958.45
2017-04-17T00:05:15.918Z,958.44
2017-04-17T00:07:28.159Z,958.41
2017-04-17T00:09:40.332Z,958.39
2017-04-17T00:11:52.733Z,958.38
2017-04-17T00:14:00.003Z,958.45
2017-04-17T00:16:07.464Z,958.39
2017-04-17T00:18:19.909Z,958.38
2017-04-17T00:20:32.407Z,958.3
2017-04-17T00:22:39.821Z,958.28
2017-04-17T00:24:52.089Z,958.31
2017-04-17T00:27:04.407Z,958.25
2017-04-17T00:29:16.669Z,958.24
2017-04-17T00:31:28.836Z,958.26
2017-04-17T00:33:41.246Z,958.22
2017-04-17T00:35:48.643Z,958.15
2017-04-17T00:38:00.906Z,958.2
2017-04-17T00:40:13.206Z,958.22
2017-04-17T00:42:20.575Z,958.18
2017-04-17T00:44:32.859Z,958.19
2017-04-17T00:46:40.357Z,958.13
2017-04-17T00:48:52.518Z,958.15
2017-04-17T00:51:04.792Z,958.08
2017-04-17T00:53:12.257Z,958.07
2017-04-17T00:55:24.474Z,958.08
2017-04-17T00:57:36.789Z,958.05
2017-04-17T00:59:49.053Z,958.04
2017-04-17T01:02:01.279Z,958.06
2017-04-17T01:04:13.615Z,958.07
2017-04-17T01:06:25.806Z,958.05
2017-04-17T01:08:38.181Z,958.05
2017-04-17T01:10:50.427Z,958
2017-04-17T01:13:02.661Z,957.96
2017-04-17T01:15:14.834Z,957.95
2017-04-17T01:17:27.112Z,957.95
2017-04-17T01:19:37.798Z,957.95
2017-04-17T01:21:50.058Z,957.91
2017-04-17T01:24:02.547Z,957.85
2017-04-17T01:26:14.776Z,957.83
2017-04-17T01:28:22.086Z,957.85
2017-04-17T01:30:34.321Z,957.84
2017-04-17T01:32:47.099Z,957.79
2017-04-17T01:34:59.723Z,957.83
2017-04-17T01:37:11.971Z,957.84
2017-04-17T01:39:24.285Z,957.79
2017-04-17T01:41:36.646Z,957.74
2017-04-17T01:43:47.329Z,957.77
2017-04-17T01:45:59.611Z,957.67
2017-04-17T01:48:10.213Z,957.61
2017-04-17T01:50:22.616Z,957.65
2017-04-17T01:52:34.967Z,957.62
2017-04-17T01:54:47.293Z,957.69
2017-04-17T01:56:54.654Z,957.65
2017-04-17T01:59:07.006Z,957.6
2017-04-17T02:01:19.294Z,957.6
2017-04-17T02:03:26.594Z,957.59
2017-04-17T02:05:38.954Z,957.53
2017-04-17T02:07:46.839Z,957.49
2017-04-17T02:09:59.238Z,957.49
2017-04-17T02:12:11.454Z,957.5
2017-04-17T02:14:23.606Z,957.5
2017-04-17T02:16:35.832Z,957.46
2017-04-17T02:18:48.078Z,957.4
2017-04-17T02:21:00.346Z,957.44
2017-04-17T02:23:07.630Z,957.39
2017-04-17T02:25:19.810Z,957.44
2017-04-17T02:27:32.164Z,957.39
2017-04-17T02:29:44.421Z,957.46
2017-04-17T02:31:56.729Z,957.4
2017-04-17T02:34:08.974Z,957.4
2017-04-17T02:36:21.249Z,957.39
2017-04-17T02:38:48.997Z,957.41
2017-04-17T02:41:16.779Z,957.38
2017-04-17T02:43:29.130Z,957.38
2017-04-17T02:45:41.350Z,957.37
2017-04-17T02:47:53.648Z,957.31
2017-04-17T02:50:05.898Z,957.34
2017-04-17T02:52:18.157Z,957.35
2017-04-17T02:54:30.503Z,957.33
2017-04-17T02:56:37.872Z,957.41
2017-04-17T02:58:50.431Z,957.32
2017-04-17T03:01:02.710Z,957.28
2017-04-17T03:03:15.041Z,957.33
2017-04-17T03:05:27.392Z,957.28
2017-04-17T03:07:39.705Z,957.3
2017-04-17T03:09:51.976Z,957.28
2017-04-17T03:12:04.257Z,957.37
2017-04-17T03:14:14.797Z,957.29
2017-04-17T03:16:27.245Z,957.33
2017-04-17T03:18:40.064Z,957.27
2017-04-17T03:20:47.270Z,957.2
2017-04-17T03:22:59.690Z,957.21
2017-04-17T03:25:11.955Z,957.26
2017-04-17T03:27:24.299Z,957.19
2017-04-17T03:29:36.604Z,957.17
2017-04-17T03:31:49.828Z,957.22
2017-04-17T03:34:02.127Z,957.19
2017-04-17T03:36:14.461Z,957.21
2017-04-17T03:38:21.809Z,957.21
2017-04-17T03:40:32.347Z,957.16
2017-04-17T03:42:44.566Z,957.17
2017-04-17T03:44:56.872Z,957.1
2017-04-17T03:47:04.278Z,957.08
2017-04-17T03:49:16.568Z,957.05
2017-04-17T03:51:24.272Z,957.07
2017-04-17T03:53:37.442Z,957.03
2017-04-17T03:55:44.770Z,956.98
2017-04-17T03:57:57.224Z,957.01
2017-04-17T04:00:09.492Z,956.94
2017-04-17T04:02:21.836Z,956.93
2017-04-17T04:04:34.114Z,956.95
2017-04-17T04:06:46.612Z,956.94
2017-04-17T04:08:58.856Z,956.93
2017-04-17T04:11:11.044Z,956.86
2017-04-17T04:13:23.419Z,956.87
2017-04-17T04:15:35.712Z,956.86
2017-04-17T04:17:47.980Z,956.87
2017-04-17T04:20:00.137Z,956.84
2017-04-17T04:22:12.489Z,956.83
2017-04-17T04:24:24.827Z,956.81
2017-04-17T04:26:27.315Z,956.78
2017-04-17T04:28:40.249Z,956.76
2017-04-17T04:30:52.799Z,956.75
2017-04-17T04:33:05.165Z,956.75
2017-04-17T04:35:12.576Z,956.72
2017-04-17T04:37:19.794Z,956.72
2017-04-17T04:39:32.025Z,956.69
2017-04-17T04:41:44.339Z,956.74
2017-04-17T04:43:56.530Z,956.75
2017-04-17T04:46:08.777Z,956.74
2017-04-17T04:48:16.078Z,956.73
2017-04-17T04:50:28.555Z,956.72
2017-04-17T04:52:40.822Z,956.71
2017-04-17T04:54:53.083Z,956.7
2017-04-17T04:57:00.566Z,956.75
2017-04-17T04:59:07.925Z,956.7
2017-04-17T05:01:13.587Z,956.71
2017-04-17T05:03:21.263Z,956.72
2017-04-17T05:05:33.906Z,956.7
2017-04-17T05:07:46.402Z,956.69
2017-04-17T05:09:58.653Z,956.67
2017-04-17T05:12:10.990Z,956.6
2017-04-17T05:14:23.211Z,956.69
2017-04-17T05:16:35.433Z,956.67
2017-04-17T05:18:47.841Z,956.69
2017-04-17T05:21:00.085Z,956.65
2017-04-17T05:23:12.477Z,956.72
2017-04-17T05:25:24.688Z,956.74
2017-04-17T05:27:36.987Z,956.69
2017-04-17T05:29:49.508Z,956.72
2017-04-17T05:31:56.723Z,956.77
2017-04-17T05:34:03.960Z,956.72
2017-04-17T05:36:16.148Z,956.68
2017-04-17T05:38:28.431Z,956.66
2017-04-17T05:40:41.038Z,956.69
2017-04-17T05:42:53.901Z,956.66
2017-04-17T05:45:01.349Z,956.64
2017-04-17T05:47:13.679Z,956.5
2017-04-17T05:49:25.975Z,956.55
2017-04-17T05:51:38.347Z,956.5
2017-04-17T05:53:45.734Z,956.5
2017-04-17T05:55:58.033Z,956.58
2017-04-17T05:58:05.260Z,956.52
2017-04-17T06:00:17.423Z,956.47
2017-04-17T06:02:29.635Z,956.42
2017-04-17T06:04:41.915Z,956.42
2017-04-17T06:06:54.220Z,956.44
2017-04-17T06:09:06.426Z,956.39
2017-04-17T06:11:18.676Z,956.42
2017-04-17T06:13:32.092Z,956.4
2017-04-17T06:15:46.003Z,956.37
2017-04-17T06:18:01.257Z,956.34
2017-04-17T06:20:15.095Z,956.38
2017-04-17T06:22:27.433Z,956.37
2017-04-17T06:24:39.835Z,956.35
2017-04-17T06:26:52.096Z,956.3
2017-04-17T06:29:04.455Z,956.35
2017-04-17T06:31:17.427Z,956.28
2017-04-17T06:33:29.656Z,956.28
2017-04-17T06:35:37.438Z,956.29
2017-04-17T06:37:49.742Z,956.23
2017-04-17T06:40:02.104Z,956.18
2017-04-17T06:42:19.513Z,956.15
2017-04-17T06:44:47.020Z,956.15
2017-04-17T06:46:59.952Z,956.16
2017-04-17T06:49:13.225Z,956.12
2017-04-17T06:51:27.379Z,956.04
2017-04-17T06:53:40.332Z,956.05
2017-04-17T06:55:55.375Z,956.01
2017-04-17T06:58:08.724Z,956.01
2017-04-17T07:00:24.020Z,955.94
2017-04-17T07:02:35.445Z,955.93
2017-04-17T07:04:48.904Z,955.94
2017-04-17T07:07:03.064Z,955.87
2017-04-17T07:09:16.398Z,955.85
2017-04-17T07:11:28.957Z,955.85
2017-04-17T07:13:43.081Z,955.79
2017-04-17T07:15:58.575Z,955.79
2017-04-17T07:18:05.913Z,955.68
2017-04-17T07:20:18.203Z,955.7
2017-04-17T07:22:31.085Z,955.66
2017-04-17T07:24:45.020Z,955.62
2017-04-17T07:26:59.236Z,955.62
2017-04-17T07:29:13.269Z,955.6
2017-04-17T07:31:26.512Z,955.58
2017-04-17T07:33:40.362Z,955.47
2017-04-17T07:35:53.542Z,955.52
2017-04-17T07:38:08.505Z,955.39
2017-04-17T07:40:23.043Z,955.32
2017-04-17T07:42:37.911Z,955.31
2017-04-17T07:44:51.946Z,955.24
2017-04-17T07:47:01.002Z,955.15
2017-04-17T07:49:14.125Z,955.19
2017-04-17T07:51:30.514Z,955.18
2017-04-17T07:53:47.975Z,955.2
2017-04-17T07:56:02.411Z,955.09
2017-04-17T07:58:11.250Z,955.07
2017-04-17T08:00:24.113Z,955.07
2017-04-17T08:02:36.684Z,955.03
2017-04-17T08:04:49.734Z,955.1
2017-04-17T08:07:04.022Z,954.96
2017-04-17T08:09:19.209Z,954.91
2017-04-17T08:11:28.607Z,954.88
2017-04-17T08:13:43.877Z,954.89
2017-04-17T08:15:59.081Z,954.94
2017-04-17T08:18:11.156Z,954.94
2017-04-17T08:20:24.740Z,954.89
2017-04-17T08:22:40.800Z,954.92
2017-04-17T08:24:54.806Z,954.83
2017-04-17T08:27:07.977Z,954.88
2017-04-17T08:29:22.172Z,954.78
2017-04-17T08:31:36.115Z,954.79
2017-04-17T08:33:50.169Z,954.74
2017-04-17T08:36:06.759Z,954.69
2017-04-17T08:38:22.944Z,954.65
2017-04-17T08:40:38.716Z,954.68
2017-04-17T08:42:56.421Z,954.54
2017-04-17T08:45:27.182Z,954.61
2017-04-17T08:49:59.460Z,954.57
2017-04-17T08:52:21.272Z,954.48
2017-04-17T08:54:50.697Z,954.57
2017-04-17T08:57:06.637Z,954.51
2017-04-17T08:59:20.100Z,954.52
2017-04-17T09:01:35.003Z,954.5
2017-04-17T09:03:49.357Z,954.56
2017-04-17T09:06:03.504Z,954.52
2017-04-17T09:08:14.706Z,954.49
2017-04-17T09:10:23.179Z,954.41
2017-04-17T09:12:35.826Z,954.47
2017-04-17T09:14:43.153Z,954.42
2017-04-17T09:16:56.103Z,954.42
2017-04-17T09:19:03.698Z,954.48
2017-04-17T09:21:16.320Z,954.45
2017-04-17T09:23:28.619Z,954.38
2017-04-17T09:25:40.928Z,954.23
2017-04-17T09:27:53.441Z,954.15
2017-04-17T09:30:05.624Z,954.09
2017-04-17T09:32:17.786Z,954.14
2017-04-17T09:34:30.106Z,954.1
2017-04-17T09:36:42.682Z,954.04
2017-04-17T09:38:55.094Z,954.05
2017-04-17T09:41:07.401Z,953.91
2017-04-17T09:43:19.631Z,953.92
2017-04-17T09:45:32.289Z,953.77
2017-04-17T09:47:45.597Z,953.83
2017-04-17T09:49:58.029Z,953.82
2017-04-17T09:52:10.418Z,953.73
2017-04-17T09:54:23.478Z,953.83
2017-04-17T09:56:26.799Z,953.79
2017-04-17T09:58:40.814Z,953.76
2017-04-17T10:00:49.457Z,953.7
2017-04-17T10:03:03.146Z,953.65
2017-04-17T10:05:15.810Z,953.6
2017-04-17T10:07:29.153Z,953.58
2017-04-17T10:09:42.318Z,953.48
2017-04-17T10:11:56.584Z,953.65
2017-04-17T10:14:11.373Z,953.42
2017-04-17T10:16:24.525Z,953.5
2017-04-17T10:18:38.410Z,953.52
2017-04-17T10:20:54.124Z,953.38
2017-04-17T10:23:08.321Z,953.42
2017-04-17T10:25:23.670Z,953.39
2017-04-17T10:27:36.661Z,953.43
2017-04-17T10:29:49.986Z,953.35
2017-04-17T10:32:04.069Z,953.35
2017-04-17T10:34:18.910Z,953.53
2017-04-17T10:36:32.769Z,953.52
2017-04-17T10:38:47.541Z,953.49
2017-04-17T10:41:01.334Z,953.56
2017-04-17T10:43:15.179Z,953.4
2017-04-17T10:45:29.649Z,953.43
2017-04-17T10:47:45.072Z,953.46
2017-04-17T10:50:00.120Z,953.33
2017-04-17T10:52:13.914Z,953.38
2017-04-17T10:54:28.174Z,953.4
2017-04-17T10:56:36.620Z,953.28
2017-04-17T10:58:49.902Z,953.29
2017-04-17T11:01:04.077Z,953.21
2017-04-17T11:03:19.506Z,953.32
2017-04-17T11:05:33.521Z,953.2
2017-04-17T11:07:47.400Z,953.1
2017-04-17T11:10:01.082Z,953.04
2017-04-17T11:12:15.193Z,953.12
2017-04-17T11:14:29.090Z,953.02
2017-04-17T11:16:43.598Z,952.95
2017-04-17T11:18:57.228Z,952.82
2017-04-17T11:21:10.910Z,952.92
2017-04-17T11:23:24.563Z,952.75
2017-04-17T11:25:37.788Z,952.72
2017-04-17T11:27:50.650Z,952.77
2017-04-17T11:30:03.149Z,952.75
2017-04-17T11:32:15.382Z,952.86
2017-04-17T11:34:23.169Z,952.64
2017-04-17T11:36:35.571Z,952.66
2017-04-17T11:38:47.887Z,952.53
2017-04-17T11:41:00.811Z,952.58
2017-04-17T11:43:13.189Z,952.45
2017-04-17T11:45:25.925Z,952.42
2017-04-17T11:47:38.574Z,952.42
2017-04-17T11:49:47.331Z,952.35
2017-04-17T11:52:00.319Z,952.33
2017-04-17T11:54:19.563Z,952.32
2017-04-17T11:56:32.893Z,952.26
2017-04-17T11:58:45.975Z,952.27
2017-04-17T12:00:59.297Z,952.23
2017-04-17T12:03:13.192Z,952.36
2017-04-17T12:05:25.911Z,952.31
2017-04-17T12:07:38.602Z,952.26
2017-04-17T12:09:51.405Z,952.15
2017-04-17T12:12:04.385Z,952.16
2017-04-17T12:14:12.087Z,952.17
2017-04-17T12:16:20.187Z,952.16
2017-04-17T12:18:43.055Z,952.27
2017-04-17T12:21:20.352Z,952.21
2017-04-17T12:23:32.797Z,952.2
2017-04-17T12:25:45.300Z,952.1
2017-04-17T12:27:57.968Z,952.1
2017-04-17T12:30:10.549Z,952.04
2017-04-17T12:32:22.812Z,952.11
2017-04-17T12:34:30.403Z,952.32
2017-04-17T12:36:42.734Z,952.16
2017-04-17T12:38:57.204Z,952.23
2017-04-17T12:41:21.043Z,952.07
2017-04-17T12:43:47.020Z,951.98
2017-04-17T12:46:25.511Z,952.04
2017-04-17T12:49:12.172Z,952.22
2017-04-17T12:51:57.494Z,952.09
2017-04-17T12:54:27.916Z,951.82
2017-04-17T12:56:54.284Z,951.84
2017-04-17T12:59:19.746Z,951.95
2017-04-17T13:02:06.925Z,951.72
2017-04-17T13:04:26.133Z,951.79
2017-04-17T13:06:40.835Z,952.08
2017-04-17T13:08:53.596Z,951.79
2017-04-17T13:11:06.754Z,951.82
2017-04-17T13:13:19.067Z,952.01
2017-04-17T13:15:31.287Z,951.74
2017-04-17T13:18:01.477Z,952.03
2017-04-17T13:20:18.826Z,951.91
2017-04-17T13:22:31.050Z,952.01
2017-04-17T13:24:43.284Z,951.94
2017-04-17T13:26:50.675Z,951.91
2017-04-17T13:28:57.973Z,951.82
2017-04-17T13:31:10.252Z,951.84
2017-04-17T13:33:22.542Z,951.81
2017-04-17T13:35:34.829Z,951.72
2017-04-17T13:37:47.129Z,951.74
2017-04-17T13:39:54.538Z,951.81
2017-04-17T13:42:07.074Z,951.89
2017-04-17T13:44:20.677Z,952.24
2017-04-17T13:46:34.430Z,951.8
2017-04-17T13:48:47.971Z,951.96
2017-04-17T13:51:01.195Z,951.68
2017-04-17T13:53:14.726Z,951.72
2017-04-17T13:55:28.050Z,951.79
2017-04-17T13:57:41.612Z,951.75
2017-04-17T13:59:55.458Z,951.8
2017-04-17T14:02:03.454Z,951.64
2017-04-17T14:04:17.186Z,951.71
2017-04-17T14:06:29.966Z,951.7
2017-04-17T14:08:42.738Z,951.58
2017-04-17T14:10:56.005Z,951.79
2017-04-17T14:13:09.547Z,951.63
2017-04-17T14:15:23.080Z,951.7
2017-04-17T14:17:36.621Z,951.63
2017-04-17T14:19:49.566Z,951.81
2017-04-17T14:22:03.018Z,951.69
2017-04-17T14:24:16.026Z,951.77
2017-04-17T14:26:29.369Z,951.72
2017-04-17T14:28:41.615Z,951.72
2017-04-17T14:30:54.085Z,951.72
2017-04-17T14:32:57.305Z,951.63
2017-04-17T14:35:10.110Z,951.6
2017-04-17T14:37:22.349Z,951.52
2017-04-17T14:39:35.316Z,951.61
2017-04-17T14:41:48.826Z,951.56
2017-04-17T14:44:02.195Z,951.56
2017-04-17T14:46:10.699Z,951.57
2017-04-17T14:48:18.918Z,951.52
2017-04-17T14:50:32.816Z,951.56
2017-04-17T14:52:45.526Z,951.6
2017-04-17T14:54:59.130Z,951.53
2017-04-17T14:57:13.273Z,951.48
2017-04-17T14:59:26.814Z,951.6
2017-04-17T15:01:35.751Z,951.56
2017-04-17T15:03:49.001Z,951.52
2017-04-17T15:06:02.702Z,951.44
2017-04-17T15:08:16.151Z,951.5
2017-04-17T15:10:29.306Z,951.52
2017-04-17T15:12:42.806Z,951.49
2017-04-17T15:14:56.271Z,951.53
2017-04-17T15:17:04.031Z,951.5
2017-04-17T15:19:17.059Z,951.52
2017-04-17T15:21:30.939Z,951.61
2017-04-17T15:23:44.224Z,951.55
2017-04-17T15:25:52.316Z,951.58
2017-04-17T15:28:05.631Z,951.66
2017-04-17T15:30:18.155Z,951.73
2017-04-17T15:32:30.576Z,951.63
2017-04-17T15:34:43.102Z,951.68
2017-04-17T15:36:55.593Z,951.68
2017-04-17T15:39:06.234Z,951.72
2017-04-17T15:41:18.581Z,951.76
2017-04-17T15:43:30.874Z,951.79
2017-04-17T15:45:43.283Z,951.94
2017-04-17T15:47:55.685Z,951.89
2017-04-17T15:50:03.134Z,951.88
2017-04-17T15:52:15.481Z,951.98
2017-04-17T15:54:27.753Z,952.01
2017-04-17T15:56:40.060Z,952.01
2017-04-17T15:59:07.830Z,952.12
2017-04-17T16:01:39.377Z,952.25
2017-04-17T16:03:54.694Z,952.3
2017-04-17T16:06:03.699Z,952.34
2017-04-17T16:08:11.134Z,952.41
2017-04-17T16:10:23.723Z,952.46
2017-04-17T16:12:32.900Z,952.42
2017-04-17T16:14:45.549Z,952.39
2017-04-17T16:16:52.968Z,952.4
2017-04-17T16:19:05.425Z,952.45
2017-04-17T16:21:17.852Z,952.45
2017-04-17T16:23:30.248Z,952.52
2017-04-17T16:25:42.668Z,952.38
2017-04-17T16:27:51.797Z,952.46
2017-04-17T16:30:04.152Z,952.53
2017-04-17T16:32:16.506Z,952.56
2017-04-17T16:34:25.097Z,952.56
2017-04-17T16:36:32.437Z,952.69
2017-04-17T16:38:44.825Z,952.68
2017-04-17T16:40:53.734Z,952.65
2017-04-17T16:42:59.904Z,952.79
2017-04-17T16:45:12.500Z,952.83
2017-04-17T16:47:25.152Z,952.85
2017-04-17T16:49:37.602Z,952.93
2017-04-17T16:51:48.339Z,952.98
2017-04-17T16:54:00.711Z,952.92
2017-04-17T16:56:12.999Z,953.03
2017-04-17T16:58:25.378Z,952.94
2017-04-17T17:00:37.793Z,952.95
2017-04-17T17:02:45.219Z,953.07
2017-04-17T17:05:18.750Z,952.99
2017-04-17T17:08:00.216Z,953.05
2017-04-17T17:10:12.648Z,953.09
2017-04-17T17:12:25.469Z,953.1
2017-04-17T17:14:37.906Z,953.05
2017-04-17T17:16:50.308Z,953.07
2017-04-17T17:19:02.955Z,953
2017-04-17T17:21:19.880Z,953.09
2017-04-17T17:23:27.386Z,953.11
2017-04-17T17:25:40.147Z,953.08
2017-04-17T17:27:52.697Z,953.1
2017-04-17T17:29:55.106Z,953.13
2017-04-17T17:32:07.711Z,953.21
2017-04-17T17:34:20.224Z,953.31
2017-04-17T17:36:33.027Z,953.37
2017-04-17T17:38:46.357Z,953.34
2017-04-17T17:40:59.121Z,953.38
2017-04-17T17:43:12.735Z,953.4
2017-04-17T17:45:25.309Z,953.42
2017-04-17T17:47:38.160Z,953.49
2017-04-17T17:49:50.666Z,953.43
2017-04-17T17:52:03.055Z,953.48
2017-04-17T17:54:16.601Z,953.5
2017-04-17T17:56:25.045Z,953.62
2017-04-17T17:58:37.874Z,953.64
2017-04-17T18:00:50.609Z,953.69
2017-04-17T18:03:05.476Z,953.81
2017-04-17T18:05:18.740Z,953.79
2017-04-17T18:07:33.618Z,953.9
2017-04-17T18:09:46.622Z,953.9
2017-04-17T18:12:00.209Z,953.99
2017-04-17T18:14:14.766Z,954.01
2017-04-17T18:16:33.358Z,954.04
2017-04-17T18:18:41.404Z,954.13
2017-04-17T18:20:53.824Z,954.23
2017-04-17T18:23:06.752Z,954.34
2017-04-17T18:25:14.967Z,954.33
2017-04-17T18:27:27.661Z,954.28
2017-04-17T18:29:40.739Z,954.41
2017-04-17T18:31:54.092Z,954.46
2017-04-17T18:34:06.499Z,954.51
2017-04-17T18:36:19.956Z,954.55
2017-04-17T18:38:33.575Z,954.53
2017-04-17T18:40:51.110Z,954.55
2017-04-17T18:43:05.758Z,954.59
2017-04-17T18:45:18.685Z,954.63
2017-04-17T18:47:27.250Z,954.7
2017-04-17T18:49:35.652Z,954.66
2017-04-17T18:51:48.050Z,954.81
2017-04-17T18:54:00.404Z,954.75
2017-04-17T18:56:15.619Z,954.93
2017-04-17T18:58:39.752Z,955
2017-04-17T19:00:54.775Z,955.07
2017-04-17T19:03:11.671Z,955.15
2017-04-17T19:05:16.013Z,955.16
2017-04-17T19:07:29.228Z,955.36
2017-04-17T19:09:42.082Z,955.39
2017-04-17T19:11:54.840Z,955.49
2017-04-17T19:14:07.715Z,955.52
2017-04-17T19:16:20.982Z,955.56
2017-04-17T19:18:33.547Z,955.57
2017-04-17T19:20:46.692Z,955.63
2017-04-17T19:22:59.917Z,955.62
2017-04-17T19:25:14.095Z,955.55
2017-04-17T19:27:26.729Z,955.58
2017-04-17T19:29:34.288Z,955.58
2017-04-17T19:31:50.511Z,955.59
2017-04-17T19:34:07.526Z,955.66
2017-04-17T19:36:16.100Z,955.68
2017-04-17T19:38:31.830Z,955.71
2017-04-17T19:40:45.871Z,955.68
2017-04-17T19:43:02.603Z,955.71
2017-04-17T19:45:15.553Z,955.71
2017-04-17T19:47:28.361Z,955.72
2017-04-17T19:49:42.045Z,955.8
2017-04-17T19:51:50.071Z,955.86
2017-04-17T19:54:00.673Z,955.88
2017-04-17T19:56:29.986Z,955.89
2017-04-17T19:58:49.138Z,955.93
2017-04-17T20:00:57.304Z,955.92
2017-04-17T20:03:09.913Z,955.91
2017-04-17T20:05:22.985Z,956
2017-04-17T20:07:31.109Z,956.04
2017-04-17T20:09:44.482Z,956.12
2017-04-17T20:11:57.195Z,956.13
2017-04-17T20:14:10.119Z,956.11
2017-04-17T20:16:27.700Z,956.12
2017-04-17T20:18:40.809Z,956.11
2017-04-17T20:20:57.928Z,956.16
2017-04-17T20:23:10.309Z,956.15
2017-04-17T20:25:24.632Z,956.16
2017-04-17T20:27:38.035Z,956.18
2017-04-17T20:29:52.723Z,956.23
2017-04-17T20:32:05.895Z,956.22
2017-04-17T20:34:18.805Z,956.24
2017-04-17T20:36:32.005Z,956.27
2017-04-17T20:38:46.559Z,956.33
2017-04-17T20:41:01.222Z,956.36
2017-04-17T20:43:16.156Z,956.34
2017-04-17T20:45:24.066Z,956.33
2017-04-17T20:47:37.217Z,956.37
2017-04-17T20:49:52.240Z,956.38
2017-04-17T20:52:06.659Z,956.37
2017-04-17T20:54:20.093Z,956.41
2017-04-17T20:56:34.972Z,956.39
2017-04-17T20:58:44.054Z,956.41
2017-04-17T21:00:52.796Z,956.42
2017-04-17T21:03:07.143Z,956.43
2017-04-17T21:05:20.496Z,956.4
2017-04-17T21:07:34.149Z,956.41
2017-04-17T21:09:47.113Z,956.41
2017-04-17T21:12:00.647Z,956.38
2017-04-17T21:14:15.049Z,956.38
2017-04-17T21:16:27.889Z,956.4
2017-04-17T21:18:41.140Z,956.36
2017-04-17T21:20:53.617Z,956.46
2017-04-17T21:23:07.033Z,956.43
2017-04-17T21:25:14.950Z,956.42
2017-04-17T21:27:29.236Z,956.36
2017-04-17T21:29:37.154Z,956.43
2017-04-17T21:31:49.496Z,956.51
2017-04-17T21:34:01.785Z,956.45
2017-04-17T21:36:09.468Z,956.5
2017-04-17T21:38:22.278Z,956.49
2017-04-17T21:40:29.888Z,956.5
2017-04-17T21:42:43.448Z,956.52
2017-04-17T21:44:55.867Z,956.5
2017-04-17T21:47:08.133Z,956.52
2017-04-17T21:49:20.345Z,956.56
2017-04-17T21:51:32.885Z,956.6
2017-04-17T21:53:45.199Z,956.59
2017-04-17T21:55:57.504Z,956.62
2017-04-17T21:58:10.434Z,956.6
2017-04-17T22:00:23.292Z,956.6
2017-04-17T22:02:35.770Z,956.63
2017-04-17T22:04:48.030Z,956.62
2017-04-17T22:07:05.965Z,956.61
2017-04-17T22:09:18.292Z,956.6
2017-04-17T22:11:30.771Z,956.62
2017-04-17T22:13:38.146Z,956.59
2017-04-17T22:15:50.732Z,956.6
2017-04-17T22:18:03.244Z,956.58
2017-04-17T22:20:15.559Z,956.58
2017-04-17T22:22:27.801Z,956.59
2017-04-17T22:24:35.349Z,956.61
2017-04-17T22:26:47.780Z,956.58
2017-04-17T22:29:00.167Z,956.59
2017-04-17T22:31:12.576Z,956.58
2017-04-17T22:33:24.898Z,956.55
2017-04-17T22:35:37.166Z,956.56
2017-04-17T22:37:49.353Z,956.55
2017-04-17T22:40:01.618Z,956.52
2017-04-17T22:42:13.950Z,956.5
2017-04-17T22:44:26.182Z,956.55
2017-04-17T22:46:36.946Z,956.52
2017-04-17T22:48:49.598Z,956.52
2017-04-17T22:51:02.390Z,956.53
2017-04-17T22:53:12.961Z,956.53
2017-04-17T22:55:27.783Z,956.51
2017-04-17T22:57:50.248Z,956.5
2017-04-17T22:59:57.603Z,956.54
2017-04-17T23:02:11.037Z,956.52
2017-04-17T23:04:23.383Z,956.52
2017-04-17T23:06:30.773Z,956.49
2017-04-17T23:08:43.174Z,956.47
2017-04-17T23:10:50.464Z,956.4
2017-04-17T23:13:02.841Z,956.4
2017-04-17T23:15:15.240Z,956.38
2017-04-17T23:19:38.180Z,956.33
2017-04-17T23:21:50.556Z,956.31
2017-04-17T23:24:03.026Z,956.34
2017-04-17T23:26:15.752Z,956.29
2017-04-17T23:28:24.219Z,956.31
2017-04-17T23:30:36.511Z,956.26
2017-04-17T23:32:48.763Z,956.31
2017-04-17T23:35:01.291Z,956.24
2017-04-17T23:37:08.789Z,956.21
2017-04-17T23:39:16.190Z,956.2
2017-04-17T23:41:28.565Z,956.15
2017-04-17T23:43:40.843Z,956.18
2017-04-17T23:45:53.115Z,956.17
2017-04-17T23:48:05.686Z,956.13
2017-04-17T23:50:18.015Z,956.1
2017-04-17T23:52:25.411Z,956.13
2017-04-17T23:54:37.657Z,956.13
2017-04-17T23:56:45.145Z,956.1
2017-04-17T23:58:57.896Z,956.06
